EGPL - Benbecula
Distance from station: E 5mi, 14km
Updated: 10/23/2017 4:20am
Mostly Cloudy
Mostly Cloudy
 Wind from SSW
Wind: SSW 22 mph , 35 km/h
Temperature: 55°F , 13°C
Dew Point: 52°F , 11°C
Humidity: 88%
Barometer: 29.62 inHg , 1003 hPa
Clouds: Mostly Cloudy
Visibility: 6 miles , 10 km
Cloud details: Mostly Cloudy 1100 ft
2017/10/23 11:20 EGPL 231120Z 20019KT 9999 BKN011 13/11 Q1003